sensor_id;sensor_type;location;lat;lon;timestamp;pressure;altitude;pressure_sealevel;temperature;humidity
55373;BME280;70018;47.838;16.490;2023-05-10T00:01:36;99259.31;;;3.33;66.73
55373;BME280;70018;47.838;16.490;2023-05-10T00:04:03;99252.69;;;3.34;65.52
55373;BME280;70018;47.838;16.490;2023-05-10T00:06:30;99244.50;;;3.22;65.86
55373;BME280;70018;47.838;16.490;2023-05-10T00:08:57;99247.91;;;3.31;66.12
55373;BME280;70018;47.838;16.490;2023-05-10T00:11:24;99251.63;;;3.39;66.32
55373;BME280;70018;47.838;16.490;2023-05-10T00:13:51;99239.97;;;3.42;65.57
55373;BME280;70018;47.838;16.490;2023-05-10T00:16:17;99236.59;;;3.49;64.60
55373;BME280;70018;47.838;16.490;2023-05-10T00:18:44;99230.94;;;3.57;65.55
55373;BME280;70018;47.838;16.490;2023-05-10T00:21:11;99235.47;;;3.50;64.22
55373;BME280;70018;47.838;16.490;2023-05-10T00:23:37;99228.47;;;3.52;64.29
55373;BME280;70018;47.838;16.490;2023-05-10T00:26:04;99227.13;;;3.46;64.60
55373;BME280;70018;47.838;16.490;2023-05-10T00:28:30;99228.25;;;3.45;64.56
55373;BME280;70018;47.838;16.490;2023-05-10T00:30:57;99221.28;;;3.48;65.00
55373;BME280;70018;47.838;16.490;2023-05-10T00:33:24;99214.81;;;3.56;65.38
55373;BME280;70018;47.838;16.490;2023-05-10T00:35:51;99218.38;;;3.56;64.51
55373;BME280;70018;47.838;16.490;2023-05-10T00:38:17;99210.13;;;3.56;65.76
55373;BME280;70018;47.838;16.490;2023-05-10T00:40:44;99209.25;;;3.52;65.25
55373;BME280;70018;47.838;16.490;2023-05-10T00:43:11;99209.97;;;3.49;65.46
55373;BME280;70018;47.838;16.490;2023-05-10T00:45:38;99206.94;;;3.54;64.34
55373;BME280;70018;47.838;16.490;2023-05-10T00:48:06;99202.88;;;3.48;65.77
55373;BME280;70018;47.838;16.490;2023-05-10T00:50:33;99202.41;;;3.46;65.32
55373;BME280;70018;47.838;16.490;2023-05-10T00:53:00;99195.06;;;3.50;65.03
55373;BME280;70018;47.838;16.490;2023-05-10T00:55:27;99198.63;;;3.51;65.62
55373;BME280;70018;47.838;16.490;2023-05-10T00:57:54;99192.31;;;3.50;66.08
55373;BME280;70018;47.838;16.490;2023-05-10T01:00:21;99197.31;;;3.45;66.79
55373;BME280;70018;47.838;16.490;2023-05-10T01:02:47;99187.38;;;3.40;66.87
55373;BME280;70018;47.838;16.490;2023-05-10T01:05:16;99191.72;;;3.41;66.61
55373;BME280;70018;47.838;16.490;2023-05-10T01:07:42;99196.31;;;3.37;65.88
55373;BME280;70018;47.838;16.490;2023-05-10T01:10:09;99186.47;;;3.36;66.45
55373;BME280;70018;47.838;16.490;2023-05-10T01:12:39;99186.75;;;3.31;65.79
55373;BME280;70018;47.838;16.490;2023-05-10T01:15:07;99186.31;;;3.29;66.78
55373;BME280;70018;47.838;16.490;2023-05-10T01:17:38;99170.63;;;3.29;66.52
55373;BME280;70018;47.838;16.490;2023-05-10T01:20:07;99177.84;;;3.22;67.19
55373;BME280;70018;47.838;16.490;2023-05-10T01:22:50;99176.00;;;3.26;67.67
55373;BME280;70018;47.838;16.490;2023-05-10T01:25:29;99166.97;;;3.25;66.29
55373;BME280;70018;47.838;16.490;2023-05-10T01:33:46;99172.09;;;3.11;67.20
55373;BME280;70018;47.838;16.490;2023-05-10T01:36:21;99177.28;;;3.01;67.96
55373;BME280;70018;47.838;16.490;2023-05-10T01:39:10;99166.56;;;2.96;67.75
55373;BME280;70018;47.838;16.490;2023-05-10T01:41:58;99169.81;;;2.86;68.13
55373;BME280;70018;47.838;16.490;2023-05-10T01:44:39;99174.41;;;2.82;69.72
55373;BME280;70018;47.838;16.490;2023-05-10T01:47:15;99172.34;;;2.78;70.19
55373;BME280;70018;47.838;16.490;2023-05-10T01:49:46;99174.22;;;2.74;69.46
55373;BME280;70018;47.838;16.490;2023-05-10T01:52:16;99163.50;;;2.69;69.06
55373;BME280;70018;47.838;16.490;2023-05-10T01:54:52;99164.63;;;2.68;68.99
55373;BME280;70018;47.838;16.490;2023-05-10T01:57:21;99156.06;;;2.70;69.64
55373;BME280;70018;47.838;16.490;2023-05-10T01:59:52;99156.16;;;2.73;70.09
55373;BME280;70018;47.838;16.490;2023-05-10T02:02:20;99153.84;;;2.75;69.41
55373;BME280;70018;47.838;16.490;2023-05-10T02:04:49;99154.84;;;2.83;68.74
55373;BME280;70018;47.838;16.490;2023-05-10T02:07:17;99138.06;;;2.85;68.86
55373;BME280;70018;47.838;16.490;2023-05-10T02:09:45;99148.13;;;2.80;68.64
55373;BME280;70018;47.838;16.490;2023-05-10T02:12:16;99147.59;;;2.75;68.97
55373;BME280;70018;47.838;16.490;2023-05-10T02:14:45;99146.50;;;2.64;69.12
55373;BME280;70018;47.838;16.490;2023-05-10T02:17:13;99136.91;;;2.58;69.59
55373;BME280;70018;47.838;16.490;2023-05-10T02:19:41;99146.91;;;2.50;69.15
55373;BME280;70018;47.838;16.490;2023-05-10T02:22:09;99136.63;;;2.47;69.53
55373;BME280;70018;47.838;16.490;2023-05-10T02:24:37;99146.66;;;2.43;69.81
55373;BME280;70018;47.838;16.490;2023-05-10T02:27:04;99143.69;;;2.48;69.35
55373;BME280;70018;47.838;16.490;2023-05-10T02:29:33;99135.81;;;2.47;69.38
55373;BME280;70018;47.838;16.490;2023-05-10T02:32:00;99146.66;;;2.43;70.14
55373;BME280;70018;47.838;16.490;2023-05-10T02:34:28;99141.19;;;2.43;70.37
55373;BME280;70018;47.838;16.490;2023-05-10T02:36:55;99148.97;;;2.41;69.68
55373;BME280;70018;47.838;16.490;2023-05-10T02:39:23;99151.38;;;2.43;71.69
55373;BME280;70018;47.838;16.490;2023-05-10T02:41:51;99142.59;;;2.37;71.30
55373;BME280;70018;47.838;16.490;2023-05-10T02:44:20;99142.38;;;2.30;70.69
55373;BME280;70018;47.838;16.490;2023-05-10T02:46:49;99146.13;;;2.38;70.80
55373;BME280;70018;47.838;16.490;2023-05-10T02:49:16;99147.28;;;2.37;71.15
55373;BME280;70018;47.838;16.490;2023-05-10T02:51:50;99147.16;;;2.33;71.27
55373;BME280;70018;47.838;16.490;2023-05-10T02:54:24;99151.75;;;2.29;71.72
55373;BME280;70018;47.838;16.490;2023-05-10T02:56:56;99136.78;;;2.27;72.22
55373;BME280;70018;47.838;16.490;2023-05-10T02:59:23;99146.06;;;2.22;73.92
55373;BME280;70018;47.838;16.490;2023-05-10T03:01:50;99142.19;;;2.11;72.88
55373;BME280;70018;47.838;16.490;2023-05-10T03:04:16;99145.16;;;2.06;73.43
55373;BME280;70018;47.838;16.490;2023-05-10T03:06:43;99138.19;;;2.08;74.81
55373;BME280;70018;47.838;16.490;2023-05-10T03:09:10;99138.56;;;2.07;74.16
55373;BME280;70018;47.838;16.490;2023-05-10T03:18:07;99147.09;;;2.05;72.86
55373;BME280;70018;47.838;16.490;2023-05-10T03:20:42;99147.22;;;2.09;74.19
55373;BME280;70018;47.838;16.490;2023-05-10T03:23:13;99151.66;;;2.13;76.30
55373;BME280;70018;47.838;16.490;2023-05-10T03:25:48;99147.34;;;2.12;75.92
55373;BME280;70018;47.838;16.490;2023-05-10T03:28:15;99152.69;;;2.09;75.09
55373;BME280;70018;47.838;16.490;2023-05-10T03:30:43;99158.16;;;2.09;75.45
55373;BME280;70018;47.838;16.490;2023-05-10T03:33:10;99156.81;;;2.15;75.34
55373;BME280;70018;47.838;16.490;2023-05-10T03:35:37;99158.38;;;2.16;75.17
55373;BME280;70018;47.838;16.490;2023-05-10T03:38:03;99147.44;;;2.16;73.65
55373;BME280;70018;47.838;16.490;2023-05-10T03:40:30;99155.66;;;2.16;73.44
55373;BME280;70018;47.838;16.490;2023-05-10T03:42:59;99148.00;;;2.22;73.08
55373;BME280;70018;47.838;16.490;2023-05-10T03:45:26;99152.31;;;2.35;73.32
55373;BME280;70018;47.838;16.490;2023-05-10T03:47:52;99154.25;;;2.34;73.04
55373;BME280;70018;47.838;16.490;2023-05-10T03:50:20;99154.81;;;2.40;73.72
55373;BME280;70018;47.838;16.490;2023-05-10T03:52:48;99168.13;;;2.41;73.36
55373;BME280;70018;47.838;16.490;2023-05-10T03:55:14;99169.06;;;2.45;73.10
55373;BME280;70018;47.838;16.490;2023-05-10T03:57:41;99166.59;;;2.56;72.50
55373;BME280;70018;47.838;16.490;2023-05-10T04:00:09;99166.72;;;2.59;72.38
55373;BME280;70018;47.838;16.490;2023-05-10T04:02:35;99173.69;;;2.57;72.03
55373;BME280;70018;47.838;16.490;2023-05-10T04:05:04;99181.34;;;2.51;73.50
55373;BME280;70018;47.838;16.490;2023-05-10T04:07:30;99165.59;;;2.48;74.42
55373;BME280;70018;47.838;16.490;2023-05-10T04:09:57;99172.69;;;2.49;74.90
55373;BME280;70018;47.838;16.490;2023-05-10T04:12:23;99179.72;;;2.62;73.85
55373;BME280;70018;47.838;16.490;2023-05-10T04:14:50;99180.63;;;2.66;72.91
55373;BME280;70018;47.838;16.490;2023-05-10T04:17:17;99184.00;;;2.75;73.53
55373;BME280;70018;47.838;16.490;2023-05-10T04:19:43;99193.59;;;2.82;72.63
55373;BME280;70018;47.838;16.490;2023-05-10T04:22:10;99196.47;;;2.73;72.67
55373;BME280;70018;47.838;16.490;2023-05-10T04:24:37;99198.31;;;2.69;73.63
55373;BME280;70018;47.838;16.490;2023-05-10T04:27:03;99196.00;;;2.71;73.72
55373;BME280;70018;47.838;16.490;2023-05-10T04:29:30;99195.69;;;2.72;73.12
55373;BME280;70018;47.838;16.490;2023-05-10T04:31:57;99200.44;;;2.75;72.93
55373;BME280;70018;47.838;16.490;2023-05-10T04:34:24;99198.72;;;2.83;72.22
55373;BME280;70018;47.838;16.490;2023-05-10T04:36:50;99208.41;;;2.93;72.20
55373;BME280;70018;47.838;16.490;2023-05-10T04:39:17;99209.28;;;2.97;71.72
55373;BME280;70018;47.838;16.490;2023-05-10T04:41:43;99206.31;;;3.02;73.04
55373;BME280;70018;47.838;16.490;2023-05-10T04:44:10;99198.00;;;3.14;71.76
55373;BME280;70018;47.838;16.490;2023-05-10T04:46:36;99209.66;;;3.38;72.05
55373;BME280;70018;47.838;16.490;2023-05-10T04:49:03;99201.00;;;3.68;71.12
55373;BME280;70018;47.838;16.490;2023-05-10T04:51:29;99206.66;;;3.90;70.28
55373;BME280;70018;47.838;16.490;2023-05-10T04:53:57;99201.25;;;4.10;70.04
55373;BME280;70018;47.838;16.490;2023-05-10T04:56:32;99202.38;;;4.24;69.97
55373;BME280;70018;47.838;16.490;2023-05-10T04:58:59;99204.31;;;4.39;69.16
55373;BME280;70018;47.838;16.490;2023-05-10T05:01:25;99204.50;;;4.50;69.18
55373;BME280;70018;47.838;16.490;2023-05-10T05:03:52;99206.34;;;4.61;69.04
55373;BME280;70018;47.838;16.490;2023-05-10T05:06:19;99215.25;;;4.74;68.86
55373;BME280;70018;47.838;16.490;2023-05-10T05:08:47;99210.47;;;4.90;68.69
55373;BME280;70018;47.838;16.490;2023-05-10T05:11:16;99202.31;;;5.13;68.29
55373;BME280;70018;47.838;16.490;2023-05-10T05:13:43;99208.88;;;5.27;67.76
55373;BME280;70018;47.838;16.490;2023-05-10T05:16:10;99208.13;;;5.50;67.54
55373;BME280;70018;47.838;16.490;2023-05-10T05:18:38;99212.28;;;5.63;67.47
55373;BME280;70018;47.838;16.490;2023-05-10T05:21:14;99203.19;;;5.81;67.05
55373;BME280;70018;47.838;16.490;2023-05-10T05:23:42;99210.06;;;5.94;66.58
55373;BME280;70018;47.838;16.490;2023-05-10T05:26:08;99208.22;;;6.02;66.33
55373;BME280;70018;47.838;16.490;2023-05-10T05:28:36;99208.88;;;6.18;66.42
55373;BME280;70018;47.838;16.490;2023-05-10T05:31:04;99219.00;;;6.37;66.19
55373;BME280;70018;47.838;16.490;2023-05-10T05:33:31;99206.59;;;6.50;66.38
55373;BME280;70018;47.838;16.490;2023-05-10T05:36:01;99207.38;;;6.50;65.06
55373;BME280;70018;47.838;16.490;2023-05-10T05:38:27;99210.47;;;6.45;65.81
55373;BME280;70018;47.838;16.490;2023-05-10T05:40:54;99210.66;;;6.59;64.95
55373;BME280;70018;47.838;16.490;2023-05-10T05:43:21;99209.09;;;6.62;65.25
55373;BME280;70018;47.838;16.490;2023-05-10T05:45:47;99207.81;;;6.79;65.20
55373;BME280;70018;47.838;16.490;2023-05-10T05:48:14;99208.72;;;6.90;64.69
55373;BME280;70018;47.838;16.490;2023-05-10T05:50:41;99207.25;;;6.99;64.56
55373;BME280;70018;47.838;16.490;2023-05-10T05:53:08;99214.28;;;7.26;64.84
55373;BME280;70018;47.838;16.490;2023-05-10T05:55:35;99221.19;;;7.43;64.10
55373;BME280;70018;47.838;16.490;2023-05-10T05:58:01;99215.59;;;7.36;64.24
55373;BME280;70018;47.838;16.490;2023-05-10T06:00:28;99222.34;;;7.42;63.79
55373;BME280;70018;47.838;16.490;2023-05-10T06:02:55;99224.47;;;7.59;63.63
55373;BME280;70018;47.838;16.490;2023-05-10T06:05:21;99214.06;;;7.82;63.56
55373;BME280;70018;47.838;16.490;2023-05-10T06:07:48;99224.00;;;7.90;63.08
55373;BME280;70018;47.838;16.490;2023-05-10T06:10:15;99217.28;;;7.91;62.48
55373;BME280;70018;47.838;16.490;2023-05-10T06:12:41;99225.16;;;7.89;62.18
55373;BME280;70018;47.838;16.490;2023-05-10T06:15:08;99225.31;;;8.04;62.60
55373;BME280;70018;47.838;16.490;2023-05-10T06:17:35;99216.69;;;8.12;62.60
55373;BME280;70018;47.838;16.490;2023-05-10T06:20:02;99213.66;;;8.31;62.42
55373;BME280;70018;47.838;16.490;2023-05-10T06:22:29;99221.38;;;8.59;61.83
55373;BME280;70018;47.838;16.490;2023-05-10T06:24:55;99209.66;;;8.87;60.93
55373;BME280;70018;47.838;16.490;2023-05-10T06:27:22;99206.97;;;9.11;60.93
55373;BME280;70018;47.838;16.490;2023-05-10T06:29:49;99207.81;;;9.15;60.75
55373;BME280;70018;47.838;16.490;2023-05-10T06:32:24;99211.44;;;9.34;60.05
55373;BME280;70018;47.838;16.490;2023-05-10T06:34:51;99200.81;;;9.57;60.09
55373;BME280;70018;47.838;16.490;2023-05-10T06:37:18;99209.91;;;9.61;59.61
55373;BME280;70018;47.838;16.490;2023-05-10T06:39:44;99212.28;;;9.59;59.71
55373;BME280;70018;47.838;16.490;2023-05-10T06:42:11;99208.34;;;9.74;59.33
55373;BME280;70018;47.838;16.490;2023-05-10T06:44:38;99220.66;;;9.87;59.04
55373;BME280;70018;47.838;16.490;2023-05-10T06:47:04;99210.75;;;10.18;58.82
55373;BME280;70018;47.838;16.490;2023-05-10T06:49:31;99217.47;;;10.27;58.48
55373;BME280;70018;47.838;16.490;2023-05-10T06:51:57;99215.91;;;10.48;58.16
55373;BME280;70018;47.838;16.490;2023-05-10T06:54:24;99214.69;;;10.63;57.96
55373;BME280;70018;47.838;16.490;2023-05-10T06:56:51;99219.78;;;10.82;57.92
55373;BME280;70018;47.838;16.490;2023-05-10T06:59:18;99222.13;;;10.94;57.72
55373;BME280;70018;47.838;16.490;2023-05-10T07:01:45;99223.72;;;10.91;57.38
55373;BME280;70018;47.838;16.490;2023-05-10T07:04:12;99211.78;;;11.05;57.35
55373;BME280;70018;47.838;16.490;2023-05-10T07:06:40;99218.41;;;11.29;57.19
55373;BME280;70018;47.838;16.490;2023-05-10T07:09:06;99216.75;;;11.38;56.75
55373;BME280;70018;47.838;16.490;2023-05-10T07:11:34;99221.13;;;11.39;56.85
55373;BME280;70018;47.838;16.490;2023-05-10T07:14:00;99217.50;;;11.46;56.15
55373;BME280;70018;47.838;16.490;2023-05-10T07:16:27;99212.75;;;11.50;55.86
55373;BME280;70018;47.838;16.490;2023-05-10T07:18:54;99217.50;;;11.49;55.81
55373;BME280;70018;47.838;16.490;2023-05-10T07:21:20;99215.88;;;11.62;56.09
55373;BME280;70018;47.838;16.490;2023-05-10T07:23:47;99215.03;;;11.69;55.48
55373;BME280;70018;47.838;16.490;2023-05-10T07:26:13;99212.94;;;11.84;55.86
55373;BME280;70018;47.838;16.490;2023-05-10T07:28:41;99220.34;;;12.01;55.58
55373;BME280;70018;47.838;16.490;2023-05-10T07:31:08;99214.75;;;12.04;55.23
55373;BME280;70018;47.838;16.490;2023-05-10T07:33:35;99224.59;;;12.16;54.91
55373;BME280;70018;47.838;16.490;2023-05-10T07:36:01;99217.03;;;12.16;55.19
55373;BME280;70018;47.838;16.490;2023-05-10T07:38:28;99215.44;;;12.15;54.59
55373;BME280;70018;47.838;16.490;2023-05-10T07:40:54;99215.38;;;12.26;54.09
55373;BME280;70018;47.838;16.490;2023-05-10T07:43:21;99223.28;;;12.31;53.96
55373;BME280;70018;47.838;16.490;2023-05-10T07:45:48;99211.53;;;12.09;54.34
55373;BME280;70018;47.838;16.490;2023-05-10T07:48:14;99220.34;;;12.04;53.85
55373;BME280;70018;47.838;16.490;2023-05-10T07:50:41;99217.91;;;12.10;54.11
55373;BME280;70018;47.838;16.490;2023-05-10T07:53:08;99218.06;;;11.89;53.76
55373;BME280;70018;47.838;16.490;2023-05-10T07:55:35;99216.53;;;11.81;54.01
55373;BME280;70018;47.838;16.490;2023-05-10T07:58:01;99223.50;;;12.03;53.28
55373;BME280;70018;47.838;16.490;2023-05-10T08:00:28;99229.19;;;11.89;53.26
55373;BME280;70018;47.838;16.490;2023-05-10T08:02:54;99217.31;;;11.85;53.38
55373;BME280;70018;47.838;16.490;2023-05-10T08:05:21;99216.38;;;12.02;52.57
55373;BME280;70018;47.838;16.490;2023-05-10T08:07:48;99227.22;;;12.37;52.28
55373;BME280;70018;47.838;16.490;2023-05-10T08:10:14;99221.38;;;12.65;51.65
55373;BME280;70018;47.838;16.490;2023-05-10T08:12:41;99228.69;;;12.52;51.54
55373;BME280;70018;47.838;16.490;2023-05-10T08:15:08;99226.31;;;12.47;51.54
55373;BME280;70018;47.838;16.490;2023-05-10T08:17:34;99228.84;;;12.31;52.13
55373;BME280;70018;47.838;16.490;2023-05-10T08:20:01;99222.00;;;12.39;52.11
55373;BME280;70018;47.838;16.490;2023-05-10T08:22:28;99227.06;;;12.55;51.54
55373;BME280;70018;47.838;16.490;2023-05-10T08:24:54;99218.56;;;13.02;50.77
55373;BME280;70018;47.838;16.490;2023-05-10T08:27:21;99222.31;;;13.23;49.70
55373;BME280;70018;47.838;16.490;2023-05-10T08:29:48;99221.34;;;13.36;49.30
55373;BME280;70018;47.838;16.490;2023-05-10T08:32:16;99221.34;;;13.67;48.43
55373;BME280;70018;47.838;16.490;2023-05-10T08:34:43;99227.44;;;13.85;48.14
55373;BME280;70018;47.838;16.490;2023-05-10T08:37:09;99230.69;;;13.53;48.14
55373;BME280;70018;47.838;16.490;2023-05-10T08:39:39;99217.25;;;13.44;48.25
55373;BME280;70018;47.838;16.490;2023-05-10T08:42:06;99222.97;;;13.00;48.90
55373;BME280;70018;47.838;16.490;2023-05-10T08:44:35;99220.25;;;12.96;48.86
55373;BME280;70018;47.838;16.490;2023-05-10T08:47:05;99224.81;;;13.14;48.84
55373;BME280;70018;47.838;16.490;2023-05-10T08:49:33;99224.56;;;13.01;48.90
55373;BME280;70018;47.838;16.490;2023-05-10T08:52:03;99226.00;;;12.82;48.84
55373;BME280;70018;47.838;16.490;2023-05-10T08:54:33;99229.97;;;12.81;49.05
55373;BME280;70018;47.838;16.490;2023-05-10T08:57:01;99218.84;;;12.78;48.45
55373;BME280;70018;47.838;16.490;2023-05-10T08:59:28;99209.66;;;12.84;48.40
55373;BME280;70018;47.838;16.490;2023-05-10T09:01:59;99215.25;;;13.15;48.13
55373;BME280;70018;47.838;16.490;2023-05-10T09:04:27;99215.97;;;13.22;47.48
55373;BME280;70018;47.838;16.490;2023-05-10T09:06:54;99206.16;;;13.37;47.41
55373;BME280;70018;47.838;16.490;2023-05-10T09:09:21;99212.75;;;13.81;46.81
55373;BME280;70018;47.838;16.490;2023-05-10T09:11:48;99213.69;;;13.97;46.10
55373;BME280;70018;47.838;16.490;2023-05-10T09:14:15;99219.38;;;13.90;45.83
55373;BME280;70018;47.838;16.490;2023-05-10T09:16:42;99211.06;;;13.60;46.19
55373;BME280;70018;47.838;16.490;2023-05-10T09:19:09;99210.69;;;13.85;45.72
55373;BME280;70018;47.838;16.490;2023-05-10T09:21:36;99220.63;;;14.36;45.01
55373;BME280;70018;47.838;16.490;2023-05-10T09:24:06;99214.25;;;14.81;44.67
55373;BME280;70018;47.838;16.490;2023-05-10T09:26:33;99220.41;;;15.12;44.11
55373;BME280;70018;47.838;16.490;2023-05-10T09:29:00;99214.91;;;15.09;44.05
55373;BME280;70018;47.838;16.490;2023-05-10T09:31:47;99212.59;;;15.04;43.26
55373;BME280;70018;47.838;16.490;2023-05-10T09:34:29;99212.31;;;14.98;44.16
55373;BME280;70018;47.838;16.490;2023-05-10T09:36:58;99216.97;;;15.05;44.20
55373;BME280;70018;47.838;16.490;2023-05-10T09:39:37;99216.06;;;15.11;43.49
55373;BME280;70018;47.838;16.490;2023-05-10T09:42:08;99209.31;;;15.28;43.47
55373;BME280;70018;47.838;16.490;2023-05-10T09:44:37;99217.47;;;15.19;43.41
55373;BME280;70018;47.838;16.490;2023-05-10T09:47:04;99208.53;;;15.28;43.31
55373;BME280;70018;47.838;16.490;2023-05-10T09:49:31;99209.16;;;15.35;43.35
55373;BME280;70018;47.838;16.490;2023-05-10T09:52:05;99204.84;;;15.50;43.04
55373;BME280;70018;47.838;16.490;2023-05-10T09:54:33;99207.13;;;15.55;42.97
55373;BME280;70018;47.838;16.490;2023-05-10T09:57:00;99209.22;;;15.51;42.24
55373;BME280;70018;47.838;16.490;2023-05-10T09:59:28;99200.97;;;15.44;42.78
55373;BME280;70018;47.838;16.490;2023-05-10T10:01:59;99202.63;;;15.42;43.17
55373;BME280;70018;47.838;16.490;2023-05-10T10:04:26;99205.66;;;15.67;42.61
55373;BME280;70018;47.838;16.490;2023-05-10T10:07:03;99213.13;;;15.74;42.70
55373;BME280;70018;47.838;16.490;2023-05-10T10:09:31;99208.16;;;15.45;42.99
55373;BME280;70018;47.838;16.490;2023-05-10T10:11:59;99196.03;;;14.93;44.18
55373;BME280;70018;47.838;16.490;2023-05-10T10:14:26;99199.56;;;15.17;43.96
55373;BME280;70018;47.838;16.490;2023-05-10T10:16:53;99201.13;;;15.18;43.64
55373;BME280;70018;47.838;16.490;2023-05-10T10:19:34;99206.22;;;15.03;43.53
55373;BME280;70018;47.838;16.490;2023-05-10T10:22:04;99192.81;;;15.14;43.61
55373;BME280;70018;47.838;16.490;2023-05-10T10:24:31;99198.44;;;15.86;42.37
55373;BME280;70018;47.838;16.490;2023-05-10T10:27:23;99193.97;;;14.97;43.63
55373;BME280;70018;47.838;16.490;2023-05-10T10:30:07;99199.25;;;14.72;44.07
55373;BME280;70018;47.838;16.490;2023-05-10T10:35:15;99191.56;;;14.56;43.66
55373;BME280;70018;47.838;16.490;2023-05-10T10:37:46;99195.94;;;14.77;43.17
55373;BME280;70018;47.838;16.490;2023-05-10T10:40:33;99189.44;;;14.64;43.80
55373;BME280;70018;47.838;16.490;2023-05-10T10:43:26;99199.69;;;14.70;43.61
55373;BME280;70018;47.838;16.490;2023-05-10T10:46:15;99195.03;;;15.03;43.26
55373;BME280;70018;47.838;16.490;2023-05-10T10:48:50;99195.69;;;15.30;42.83
55373;BME280;70018;47.838;16.490;2023-05-10T10:51:38;99193.75;;;14.88;43.09
55373;BME280;70018;47.838;16.490;2023-05-10T10:54:11;99192.59;;;14.85;42.74
55373;BME280;70018;47.838;16.490;2023-05-10T10:56:38;99194.50;;;14.49;42.83
55373;BME280;70018;47.838;16.490;2023-05-10T10:59:04;99181.19;;;14.10;43.72
55373;BME280;70018;47.838;16.490;2023-05-10T11:01:34;99187.28;;;14.52;42.99
55373;BME280;70018;47.838;16.490;2023-05-10T11:06:32;99177.16;;;15.56;41.55
55373;BME280;70018;47.838;16.490;2023-05-10T11:09:04;99176.81;;;16.02;40.48
55373;BME280;70018;47.838;16.490;2023-05-10T11:11:32;99175.34;;;16.30;40.32
55373;BME280;70018;47.838;16.490;2023-05-10T11:14:03;99184.00;;;15.87;40.82
55373;BME280;70018;47.838;16.490;2023-05-10T11:16:41;99177.13;;;16.08;40.50
55373;BME280;70018;47.838;16.490;2023-05-10T11:19:11;99172.94;;;15.48;41.25
55373;BME280;70018;47.838;16.490;2023-05-10T11:21:49;99175.84;;;15.25;41.21
55373;BME280;70018;47.838;16.490;2023-05-10T11:24:20;99171.28;;;15.67;40.71
55373;BME280;70018;47.838;16.490;2023-05-10T11:26:50;99169.00;;;15.45;41.09
55373;BME280;70018;47.838;16.490;2023-05-10T11:29:16;99174.41;;;15.17;41.85
55373;BME280;70018;47.838;16.490;2023-05-10T11:31:44;99174.00;;;15.34;41.36
55373;BME280;70018;47.838;16.490;2023-05-10T11:34:11;99174.13;;;15.99;40.34
55373;BME280;70018;47.838;16.490;2023-05-10T11:36:40;99186.47;;;16.17;39.97
55373;BME280;70018;47.838;16.490;2023-05-10T11:39:07;99180.75;;;16.37;39.02
55373;BME280;70018;47.838;16.490;2023-05-10T11:41:33;99175.53;;;16.23;39.40
55373;BME280;70018;47.838;16.490;2023-05-10T11:44:01;99180.53;;;16.15;39.90
55373;BME280;70018;47.838;16.490;2023-05-10T11:46:28;99175.00;;;15.96;40.11
55373;BME280;70018;47.838;16.490;2023-05-10T11:48:59;99171.84;;;15.78;40.31
55373;BME280;70018;47.838;16.490;2023-05-10T11:51:28;99170.44;;;15.86;40.43
55373;BME280;70018;47.838;16.490;2023-05-10T11:53:55;99157.00;;;16.13;39.63
55373;BME280;70018;47.838;16.490;2023-05-10T11:56:22;99166.25;;;15.94;39.69
55373;BME280;70018;47.838;16.490;2023-05-10T11:58:56;99159.03;;;15.61;39.30
55373;BME280;70018;47.838;16.490;2023-05-10T12:01:25;99163.69;;;15.99;38.67
55373;BME280;70018;47.838;16.490;2023-05-10T12:03:55;99163.22;;;16.49;38.05
55373;BME280;70018;47.838;16.490;2023-05-10T12:06:31;99161.06;;;16.69;38.07
55373;BME280;70018;47.838;16.490;2023-05-10T12:08:59;99153.44;;;16.86;37.48
55373;BME280;70018;47.838;16.490;2023-05-10T12:11:27;99143.81;;;17.00;37.78
55373;BME280;70018;47.838;16.490;2023-05-10T12:13:55;99142.59;;;17.01;37.72
55373;BME280;70018;47.838;16.490;2023-05-10T12:16:24;99157.06;;;17.12;37.45
55373;BME280;70018;47.838;16.490;2023-05-10T12:18:52;99154.91;;;16.91;37.31
55373;BME280;70018;47.838;16.490;2023-05-10T12:21:20;99157.53;;;17.10;37.11
55373;BME280;70018;47.838;16.490;2023-05-10T12:23:52;99164.16;;;17.04;36.60
55373;BME280;70018;47.838;16.490;2023-05-10T12:26:22;99162.06;;;16.92;37.03
55373;BME280;70018;47.838;16.490;2023-05-10T12:28:50;99150.28;;;17.38;37.04
55373;BME280;70018;47.838;16.490;2023-05-10T12:31:17;99154.44;;;17.46;36.52
55373;BME280;70018;47.838;16.490;2023-05-10T12:33:44;99154.59;;;17.14;37.60
55373;BME280;70018;47.838;16.490;2023-05-10T12:36:14;99144.25;;;16.69;38.38
55373;BME280;70018;47.838;16.490;2023-05-10T12:38:42;99157.06;;;17.12;37.71
55373;BME280;70018;47.838;16.490;2023-05-10T12:41:12;99152.50;;;17.18;36.87
55373;BME280;70018;47.838;16.490;2023-05-10T12:43:40;99144.53;;;17.29;36.79
55373;BME280;70018;47.838;16.490;2023-05-10T12:46:11;99149.25;;;17.32;36.81
55373;BME280;70018;47.838;16.490;2023-05-10T12:48:39;99152.75;;;17.36;36.53
55373;BME280;70018;47.838;16.490;2023-05-10T12:51:07;99138.75;;;17.49;36.38
55373;BME280;70018;47.838;16.490;2023-05-10T12:53:39;99132.66;;;17.37;36.42
55373;BME280;70018;47.838;16.490;2023-05-10T12:56:09;99141.34;;;17.68;36.08
55373;BME280;70018;47.838;16.490;2023-05-10T12:58:36;99141.09;;;17.75;36.03
55373;BME280;70018;47.838;16.490;2023-05-10T13:01:03;99142.19;;;17.40;36.32
55373;BME280;70018;47.838;16.490;2023-05-10T13:03:31;99146.19;;;16.72;37.28
55373;BME280;70018;47.838;16.490;2023-05-10T13:05:58;99138.59;;;17.27;36.90
55373;BME280;70018;47.838;16.490;2023-05-10T13:08:24;99144.72;;;17.63;36.25
55373;BME280;70018;47.838;16.490;2023-05-10T13:10:51;99144.22;;;17.52;36.35
55373;BME280;70018;47.838;16.490;2023-05-10T13:13:18;99130.72;;;17.22;36.60
55373;BME280;70018;47.838;16.490;2023-05-10T13:15:44;99135.28;;;16.91;36.87
55373;BME280;70018;47.838;16.490;2023-05-10T13:18:11;99121.94;;;16.95;36.81
55373;BME280;70018;47.838;16.490;2023-05-10T13:20:38;99125.78;;;17.01;36.80